sensor_id;sensor_type;location;lat;lon;timestamp;temperature;humidity
65038;DHT22;51605;47.040;15.294;2023-12-22T00:01:19;20.50;47.80
65038;DHT22;51605;47.040;15.294;2023-12-22T00:03:45;20.50;47.80
65038;DHT22;51605;47.040;15.294;2023-12-22T00:06:15;20.50;47.80
65038;DHT22;51605;47.040;15.294;2023-12-22T00:08:41;20.50;48.00
65038;DHT22;51605;47.040;15.294;2023-12-22T00:11:07;20.50;47.90
65038;DHT22;51605;47.040;15.294;2023-12-22T00:13:32;20.50;47.80
65038;DHT22;51605;47.040;15.294;2023-12-22T00:15:59;20.60;47.90
65038;DHT22;51605;47.040;15.294;2023-12-22T00:18:26;20.50;47.80
65038;DHT22;51605;47.040;15.294;2023-12-22T00:20:52;20.50;47.80
65038;DHT22;51605;47.040;15.294;2023-12-22T00:23:18;20.50;47.80
65038;DHT22;51605;47.040;15.294;2023-12-22T00:25:43;20.50;47.80
65038;DHT22;51605;47.040;15.294;2023-12-22T00:28:09;20.50;47.80
65038;DHT22;51605;47.040;15.294;2023-12-22T00:30:34;20.50;47.80
65038;DHT22;51605;47.040;15.294;2023-12-22T00:33:00;20.50;47.80
65038;DHT22;51605;47.040;15.294;2023-12-22T00:35:26;20.50;47.80
65038;DHT22;51605;47.040;15.294;2023-12-22T00:37:52;20.50;47.80
65038;DHT22;51605;47.040;15.294;2023-12-22T00:40:18;20.50;47.80
65038;DHT22;51605;47.040;15.294;2023-12-22T00:42:44;20.50;47.80
65038;DHT22;51605;47.040;15.294;2023-12-22T00:45:09;20.50;47.90
65038;DHT22;51605;47.040;15.294;2023-12-22T00:47:36;20.50;47.90
65038;DHT22;51605;47.040;15.294;2023-12-22T00:50:02;20.50;47.80
65038;DHT22;51605;47.040;15.294;2023-12-22T00:52:29;20.50;47.80
65038;DHT22;51605;47.040;15.294;2023-12-22T00:54:55;20.50;47.80
65038;DHT22;51605;47.040;15.294;2023-12-22T00:57:21;20.60;47.90
65038;DHT22;51605;47.040;15.294;2023-12-22T00:59:46;20.50;47.80
65038;DHT22;51605;47.040;15.294;2023-12-22T01:02:17;20.50;47.80
65038;DHT22;51605;47.040;15.294;2023-12-22T01:04:43;20.50;47.90
65038;DHT22;51605;47.040;15.294;2023-12-22T01:07:09;20.50;47.90
65038;DHT22;51605;47.040;15.294;2023-12-22T01:09:36;20.50;47.90
65038;DHT22;51605;47.040;15.294;2023-12-22T01:12:05;20.50;47.90
65038;DHT22;51605;47.040;15.294;2023-12-22T01:14:32;20.50;47.90
65038;DHT22;51605;47.040;15.294;2023-12-22T01:16:58;20.50;47.80
65038;DHT22;51605;47.040;15.294;2023-12-22T01:19:25;20.50;47.90
65038;DHT22;51605;47.040;15.294;2023-12-22T01:35:19;20.50;48.00
65038;DHT22;51605;47.040;15.294;2023-12-22T01:37:45;20.50;48.00
65038;DHT22;51605;47.040;15.294;2023-12-22T01:40:12;20.50;48.00
65038;DHT22;51605;47.040;15.294;2023-12-22T01:42:38;20.50;48.00
65038;DHT22;51605;47.040;15.294;2023-12-22T01:45:05;20.50;48.10
65038;DHT22;51605;47.040;15.294;2023-12-22T01:47:31;20.50;48.00
65038;DHT22;51605;47.040;15.294;2023-12-22T01:49:57;20.50;47.90
65038;DHT22;51605;47.040;15.294;2023-12-22T01:52:23;20.50;48.00
65038;DHT22;51605;47.040;15.294;2023-12-22T01:54:50;20.50;48.00
65038;DHT22;51605;47.040;15.294;2023-12-22T01:57:17;20.50;47.90
65038;DHT22;51605;47.040;15.294;2023-12-22T01:59:45;20.50;48.00
65038;DHT22;51605;47.040;15.294;2023-12-22T02:02:11;20.50;47.90
65038;DHT22;51605;47.040;15.294;2023-12-22T02:04:37;20.50;47.90
65038;DHT22;51605;47.040;15.294;2023-12-22T02:07:03;20.50;47.80
65038;DHT22;51605;47.040;15.294;2023-12-22T02:09:29;20.50;47.90
65038;DHT22;51605;47.040;15.294;2023-12-22T02:11:55;20.50;47.90
65038;DHT22;51605;47.040;15.294;2023-12-22T02:14:20;20.50;47.80
65038;DHT22;51605;47.040;15.294;2023-12-22T02:19:45;20.50;47.80
65038;DHT22;51605;47.040;15.294;2023-12-22T02:22:12;20.50;47.80
65038;DHT22;51605;47.040;15.294;2023-12-22T02:24:41;20.50;47.80
65038;DHT22;51605;47.040;15.294;2023-12-22T02:27:40;20.50;48.00
65038;DHT22;51605;47.040;15.294;2023-12-22T02:30:11;20.50;48.00
65038;DHT22;51605;47.040;15.294;2023-12-22T02:32:43;20.50;48.00
65038;DHT22;51605;47.040;15.294;2023-12-22T02:35:17;20.50;47.90
65038;DHT22;51605;47.040;15.294;2023-12-22T02:37:46;20.50;47.90
65038;DHT22;51605;47.040;15.294;2023-12-22T02:40:14;20.50;47.90
65038;DHT22;51605;47.040;15.294;2023-12-22T02:42:39;20.50;47.90
65038;DHT22;51605;47.040;15.294;2023-12-22T02:45:06;20.50;47.90
65038;DHT22;51605;47.040;15.294;2023-12-22T02:47:38;20.50;47.80
65038;DHT22;51605;47.040;15.294;2023-12-22T02:50:04;20.50;47.80
65038;DHT22;51605;47.040;15.294;2023-12-22T02:52:29;20.50;47.80
65038;DHT22;51605;47.040;15.294;2023-12-22T02:54:57;20.60;47.90
65038;DHT22;51605;47.040;15.294;2023-12-22T02:57:22;20.50;47.80
65038;DHT22;51605;47.040;15.294;2023-12-22T02:59:48;20.50;47.80
65038;DHT22;51605;47.040;15.294;2023-12-22T03:02:14;20.50;47.80
65038;DHT22;51605;47.040;15.294;2023-12-22T03:04:39;20.50;47.80
65038;DHT22;51605;47.040;15.294;2023-12-22T03:07:05;20.50;47.90
65038;DHT22;51605;47.040;15.294;2023-12-22T03:09:31;20.50;47.90
65038;DHT22;51605;47.040;15.294;2023-12-22T03:11:57;20.50;47.90
65038;DHT22;51605;47.040;15.294;2023-12-22T03:14:31;20.50;47.90
65038;DHT22;51605;47.040;15.294;2023-12-22T03:17:01;20.50;48.00
65038;DHT22;51605;47.040;15.294;2023-12-22T03:19:27;20.50;48.00
65038;DHT22;51605;47.040;15.294;2023-12-22T03:21:52;20.50;48.00
65038;DHT22;51605;47.040;15.294;2023-12-22T03:24:19;20.50;48.00
65038;DHT22;51605;47.040;15.294;2023-12-22T03:26:46;20.50;48.00
65038;DHT22;51605;47.040;15.294;2023-12-22T03:29:11;20.50;48.00
65038;DHT22;51605;47.040;15.294;2023-12-22T03:31:37;20.50;48.00
65038;DHT22;51605;47.040;15.294;2023-12-22T03:34:03;20.50;48.00
65038;DHT22;51605;47.040;15.294;2023-12-22T03:36:28;20.50;48.00
65038;DHT22;51605;47.040;15.294;2023-12-22T03:38:54;20.50;48.00
65038;DHT22;51605;47.040;15.294;2023-12-22T03:41:20;20.50;47.90
65038;DHT22;51605;47.040;15.294;2023-12-22T03:43:45;20.50;47.90
65038;DHT22;51605;47.040;15.294;2023-12-22T03:46:11;20.50;48.00
65038;DHT22;51605;47.040;15.294;2023-12-22T03:48:37;20.50;47.90
65038;DHT22;51605;47.040;15.294;2023-12-22T03:51:02;20.50;48.00
65038;DHT22;51605;47.040;15.294;2023-12-22T03:53:28;20.50;48.00
65038;DHT22;51605;47.040;15.294;2023-12-22T03:55:54;20.50;47.90
65038;DHT22;51605;47.040;15.294;2023-12-22T03:58:20;20.50;48.00
65038;DHT22;51605;47.040;15.294;2023-12-22T04:00:46;20.50;48.00
65038;DHT22;51605;47.040;15.294;2023-12-22T04:03:13;20.50;48.00
65038;DHT22;51605;47.040;15.294;2023-12-22T04:05:38;20.50;47.90
65038;DHT22;51605;47.040;15.294;2023-12-22T04:08:05;20.50;48.00
65038;DHT22;51605;47.040;15.294;2023-12-22T04:10:30;20.50;47.90
65038;DHT22;51605;47.040;15.294;2023-12-22T04:12:56;20.50;47.90
65038;DHT22;51605;47.040;15.294;2023-12-22T04:15:23;20.50;47.90
65038;DHT22;51605;47.040;15.294;2023-12-22T04:17:49;20.50;47.90
65038;DHT22;51605;47.040;15.294;2023-12-22T04:20:15;20.50;47.90
65038;DHT22;51605;47.040;15.294;2023-12-22T04:22:41;20.50;48.00
65038;DHT22;51605;47.040;15.294;2023-12-22T04:25:07;20.50;48.10
65038;DHT22;51605;47.040;15.294;2023-12-22T04:27:34;20.50;48.00
65038;DHT22;51605;47.040;15.294;2023-12-22T04:30:00;20.50;48.00
65038;DHT22;51605;47.040;15.294;2023-12-22T04:32:25;20.50;48.00
65038;DHT22;51605;47.040;15.294;2023-12-22T04:34:51;20.50;47.90
65038;DHT22;51605;47.040;15.294;2023-12-22T04:37:17;20.50;47.90
65038;DHT22;51605;47.040;15.294;2023-12-22T04:39:42;20.50;47.90
65038;DHT22;51605;47.040;15.294;2023-12-22T04:42:08;20.50;48.00
65038;DHT22;51605;47.040;15.294;2023-12-22T04:44:33;20.50;48.00
65038;DHT22;51605;47.040;15.294;2023-12-22T04:46:59;20.50;48.00
65038;DHT22;51605;47.040;15.294;2023-12-22T04:49:25;20.50;48.10
65038;DHT22;51605;47.040;15.294;2023-12-22T04:51:51;20.50;48.90
65038;DHT22;51605;47.040;15.294;2023-12-22T04:54:16;20.50;48.90
65038;DHT22;51605;47.040;15.294;2023-12-22T04:56:42;20.50;48.90
65038;DHT22;51605;47.040;15.294;2023-12-22T04:59:08;20.50;48.90
65038;DHT22;51605;47.040;15.294;2023-12-22T05:01:33;20.50;49.00
65038;DHT22;51605;47.040;15.294;2023-12-22T05:03:59;20.50;49.00
65038;DHT22;51605;47.040;15.294;2023-12-22T05:06:25;20.50;49.20
65038;DHT22;51605;47.040;15.294;2023-12-22T05:08:51;20.50;49.30
65038;DHT22;51605;47.040;15.294;2023-12-22T05:11:16;20.50;49.30
65038;DHT22;51605;47.040;15.294;2023-12-22T05:13:42;20.50;49.50
65038;DHT22;51605;47.040;15.294;2023-12-22T05:16:08;20.50;49.30
65038;DHT22;51605;47.040;15.294;2023-12-22T05:18:34;20.50;49.30
65038;DHT22;51605;47.040;15.294;2023-12-22T05:21:00;20.50;49.40
65038;DHT22;51605;47.040;15.294;2023-12-22T05:23:25;20.50;49.00
65038;DHT22;51605;47.040;15.294;2023-12-22T05:25:51;20.50;48.90
65038;DHT22;51605;47.040;15.294;2023-12-22T05:28:18;20.50;48.70
65038;DHT22;51605;47.040;15.294;2023-12-22T05:30:43;20.50;48.60
65038;DHT22;51605;47.040;15.294;2023-12-22T05:33:09;20.50;48.40
65038;DHT22;51605;47.040;15.294;2023-12-22T05:35:35;20.50;48.30
65038;DHT22;51605;47.040;15.294;2023-12-22T05:38:01;20.50;48.30
65038;DHT22;51605;47.040;15.294;2023-12-22T05:40:27;20.50;48.30
65038;DHT22;51605;47.040;15.294;2023-12-22T05:42:52;20.50;48.30
65038;DHT22;51605;47.040;15.294;2023-12-22T05:45:18;20.50;48.30
65038;DHT22;51605;47.040;15.294;2023-12-22T05:47:44;20.50;48.30
65038;DHT22;51605;47.040;15.294;2023-12-22T05:50:09;20.50;48.30
65038;DHT22;51605;47.040;15.294;2023-12-22T05:52:36;20.50;48.20
65038;DHT22;51605;47.040;15.294;2023-12-22T05:55:02;20.50;48.20
65038;DHT22;51605;47.040;15.294;2023-12-22T05:57:27;20.50;48.20
65038;DHT22;51605;47.040;15.294;2023-12-22T05:59:53;20.50;48.20
65038;DHT22;51605;47.040;15.294;2023-12-22T06:02:19;20.50;48.20
65038;DHT22;51605;47.040;15.294;2023-12-22T06:04:44;20.50;48.20
65038;DHT22;51605;47.040;15.294;2023-12-22T06:07:10;20.50;48.30
65038;DHT22;51605;47.040;15.294;2023-12-22T06:09:36;20.50;48.20
65038;DHT22;51605;47.040;15.294;2023-12-22T06:12:02;20.50;48.20
65038;DHT22;51605;47.040;15.294;2023-12-22T06:14:28;20.50;48.30
65038;DHT22;51605;47.040;15.294;2023-12-22T06:16:54;20.50;48.20
65038;DHT22;51605;47.040;15.294;2023-12-22T06:19:22;20.50;48.20
65038;DHT22;51605;47.040;15.294;2023-12-22T06:21:49;20.50;48.20
65038;DHT22;51605;47.040;15.294;2023-12-22T06:24:15;20.60;48.20
65038;DHT22;51605;47.040;15.294;2023-12-22T06:26:42;20.50;48.20
65038;DHT22;51605;47.040;15.294;2023-12-22T06:29:07;20.50;48.20
65038;DHT22;51605;47.040;15.294;2023-12-22T06:31:33;20.50;48.10
65038;DHT22;51605;47.040;15.294;2023-12-22T06:33:59;20.50;48.20
65038;DHT22;51605;47.040;15.294;2023-12-22T06:36:28;20.50;48.20
65038;DHT22;51605;47.040;15.294;2023-12-22T06:38:54;20.50;48.10
65038;DHT22;51605;47.040;15.294;2023-12-22T06:41:30;20.50;48.10
65038;DHT22;51605;47.040;15.294;2023-12-22T06:43:57;20.50;48.10
65038;DHT22;51605;47.040;15.294;2023-12-22T06:46:25;20.50;48.10
65038;DHT22;51605;47.040;15.294;2023-12-22T06:48:55;20.50;48.00
65038;DHT22;51605;47.040;15.294;2023-12-22T06:51:29;20.50;48.10
65038;DHT22;51605;47.040;15.294;2023-12-22T06:54:01;20.50;48.10
65038;DHT22;51605;47.040;15.294;2023-12-22T06:56:29;20.50;48.00
65038;DHT22;51605;47.040;15.294;2023-12-22T06:58:57;20.50;48.20
65038;DHT22;51605;47.040;15.294;2023-12-22T07:01:30;20.50;48.00
65038;DHT22;51605;47.040;15.294;2023-12-22T07:04:01;20.50;48.50
65038;DHT22;51605;47.040;15.294;2023-12-22T07:06:31;20.50;48.90
65038;DHT22;51605;47.040;15.294;2023-12-22T07:11:46;20.50;49.20
65038;DHT22;51605;47.040;15.294;2023-12-22T07:14:11;20.50;49.40
65038;DHT22;51605;47.040;15.294;2023-12-22T07:16:37;20.50;49.40
65038;DHT22;51605;47.040;15.294;2023-12-22T07:19:04;20.50;49.10
65038;DHT22;51605;47.040;15.294;2023-12-22T07:21:30;20.50;49.40
65038;DHT22;51605;47.040;15.294;2023-12-22T07:23:56;20.50;49.40
65038;DHT22;51605;47.040;15.294;2023-12-22T07:26:22;20.50;49.40
65038;DHT22;51605;47.040;15.294;2023-12-22T07:28:49;20.50;49.20
65038;DHT22;51605;47.040;15.294;2023-12-22T07:31:15;20.50;49.20
65038;DHT22;51605;47.040;15.294;2023-12-22T07:33:41;20.50;49.40
65038;DHT22;51605;47.040;15.294;2023-12-22T07:36:07;20.50;49.40
65038;DHT22;51605;47.040;15.294;2023-12-22T07:38:33;20.50;49.40
65038;DHT22;51605;47.040;15.294;2023-12-22T07:40:58;20.50;48.90
65038;DHT22;51605;47.040;15.294;2023-12-22T07:43:25;20.60;49.90
65038;DHT22;51605;47.040;15.294;2023-12-22T07:45:50;20.50;48.70
65038;DHT22;51605;47.040;15.294;2023-12-22T07:48:17;20.50;49.40
65038;DHT22;51605;47.040;15.294;2023-12-22T07:50:43;20.50;48.30
65038;DHT22;51605;47.040;15.294;2023-12-22T07:53:08;20.50;48.30
65038;DHT22;51605;47.040;15.294;2023-12-22T07:55:35;20.50;48.20
65038;DHT22;51605;47.040;15.294;2023-12-22T07:58:01;20.50;48.20
65038;DHT22;51605;47.040;15.294;2023-12-22T08:00:26;20.50;48.10
65038;DHT22;51605;47.040;15.294;2023-12-22T08:02:53;20.50;48.10
65038;DHT22;51605;47.040;15.294;2023-12-22T08:05:18;20.50;48.10
65038;DHT22;51605;47.040;15.294;2023-12-22T08:07:44;20.50;48.10
65038;DHT22;51605;47.040;15.294;2023-12-22T08:10:10;20.50;48.10
65038;DHT22;51605;47.040;15.294;2023-12-22T08:12:36;20.50;48.10
65038;DHT22;51605;47.040;15.294;2023-12-22T08:15:02;20.50;48.00
65038;DHT22;51605;47.040;15.294;2023-12-22T08:17:29;20.50;48.00
65038;DHT22;51605;47.040;15.294;2023-12-22T08:19:54;20.50;48.00
65038;DHT22;51605;47.040;15.294;2023-12-22T08:22:21;20.50;48.00
65038;DHT22;51605;47.040;15.294;2023-12-22T08:24:48;20.50;48.00
65038;DHT22;51605;47.040;15.294;2023-12-22T08:27:14;20.50;47.90
65038;DHT22;51605;47.040;15.294;2023-12-22T08:29:39;20.50;48.00
65038;DHT22;51605;47.040;15.294;2023-12-22T08:32:05;20.50;48.00
65038;DHT22;51605;47.040;15.294;2023-12-22T08:34:31;20.50;48.00
65038;DHT22;51605;47.040;15.294;2023-12-22T08:36:56;20.50;48.00
65038;DHT22;51605;47.040;15.294;2023-12-22T08:39:22;20.50;48.00
65038;DHT22;51605;47.040;15.294;2023-12-22T08:41:49;20.50;48.00
65038;DHT22;51605;47.040;15.294;2023-12-22T08:44:15;20.50;48.00
65038;DHT22;51605;47.040;15.294;2023-12-22T08:46:41;20.50;47.90
65038;DHT22;51605;47.040;15.294;2023-12-22T08:49:07;20.50;48.00
65038;DHT22;51605;47.040;15.294;2023-12-22T08:51:33;20.50;48.00
65038;DHT22;51605;47.040;15.294;2023-12-22T08:53:59;20.50;48.00
65038;DHT22;51605;47.040;15.294;2023-12-22T08:56:25;20.50;48.10
65038;DHT22;51605;47.040;15.294;2023-12-22T08:58:52;20.50;48.00
65038;DHT22;51605;47.040;15.294;2023-12-22T09:01:20;20.50;48.00
65038;DHT22;51605;47.040;15.294;2023-12-22T09:03:46;20.50;48.00
65038;DHT22;51605;47.040;15.294;2023-12-22T09:06:19;20.50;48.10
65038;DHT22;51605;47.040;15.294;2023-12-22T09:08:45;20.50;48.00
65038;DHT22;51605;47.040;15.294;2023-12-22T09:11:12;20.50;49.00
65038;DHT22;51605;47.040;15.294;2023-12-22T09:13:38;20.50;48.00
65038;DHT22;51605;47.040;15.294;2023-12-22T09:16:04;20.50;48.00
65038;DHT22;51605;47.040;15.294;2023-12-22T09:18:31;20.50;48.00
65038;DHT22;51605;47.040;15.294;2023-12-22T09:20:57;20.50;48.00
65038;DHT22;51605;47.040;15.294;2023-12-22T09:23:23;20.50;47.90
65038;DHT22;51605;47.040;15.294;2023-12-22T09:25:48;20.50;48.00
65038;DHT22;51605;47.040;15.294;2023-12-22T09:28:14;20.50;48.00
65038;DHT22;51605;47.040;15.294;2023-12-22T09:30:40;20.50;47.90
65038;DHT22;51605;47.040;15.294;2023-12-22T09:33:08;20.50;47.90
65038;DHT22;51605;47.040;15.294;2023-12-22T09:35:34;20.50;47.90
65038;DHT22;51605;47.040;15.294;2023-12-22T09:38:00;20.50;47.90
65038;DHT22;51605;47.040;15.294;2023-12-22T09:40:25;20.50;47.80
65038;DHT22;51605;47.040;15.294;2023-12-22T09:42:54;20.50;47.80
65038;DHT22;51605;47.040;15.294;2023-12-22T09:45:21;20.50;47.90
65038;DHT22;51605;47.040;15.294;2023-12-22T09:47:48;20.50;47.90
65038;DHT22;51605;47.040;15.294;2023-12-22T09:50:15;20.50;48.00
65038;DHT22;51605;47.040;15.294;2023-12-22T09:52:42;20.50;48.00
65038;DHT22;51605;47.040;15.294;2023-12-22T09:55:09;20.50;47.90
65038;DHT22;51605;47.040;15.294;2023-12-22T09:57:37;20.50;47.90
65038;DHT22;51605;47.040;15.294;2023-12-22T10:00:09;20.50;47.80
65038;DHT22;51605;47.040;15.294;2023-12-22T10:02:36;20.50;47.90
65038;DHT22;51605;47.040;15.294;2023-12-22T10:05:03;20.50;47.90
65038;DHT22;51605;47.040;15.294;2023-12-22T10:07:30;20.50;48.00
65038;DHT22;51605;47.040;15.294;2023-12-22T10:09:56;20.50;48.00
65038;DHT22;51605;47.040;15.294;2023-12-22T10:12:23;20.50;47.90
65038;DHT22;51605;47.040;15.294;2023-12-22T10:14:49;20.50;48.00
65038;DHT22;51605;47.040;15.294;2023-12-22T10:17:17;20.50;47.90
65038;DHT22;51605;47.040;15.294;2023-12-22T10:19:43;20.50;48.00
65038;DHT22;51605;47.040;15.294;2023-12-22T10:22:08;20.50;47.80
65038;DHT22;51605;47.040;15.294;2023-12-22T10:24:42;20.50;48.60
65038;DHT22;51605;47.040;15.294;2023-12-22T10:27:08;20.50;47.80
65038;DHT22;51605;47.040;15.294;2023-12-22T10:29:34;20.50;47.90
65038;DHT22;51605;47.040;15.294;2023-12-22T10:32:02;20.50;47.90
65038;DHT22;51605;47.040;15.294;2023-12-22T10:34:28;20.50;47.80
65038;DHT22;51605;47.040;15.294;2023-12-22T10:36:54;20.50;47.90
65038;DHT22;51605;47.040;15.294;2023-12-22T10:39:20;20.50;47.90
65038;DHT22;51605;47.040;15.294;2023-12-22T10:41:49;20.50;48.00
65038;DHT22;51605;47.040;15.294;2023-12-22T10:44:15;20.50;47.90
65038;DHT22;51605;47.040;15.294;2023-12-22T10:46:43;20.50;47.90
65038;DHT22;51605;47.040;15.294;2023-12-22T10:49:09;20.50;48.00
65038;DHT22;51605;47.040;15.294;2023-12-22T10:51:34;20.50;47.90
65038;DHT22;51605;47.040;15.294;2023-12-22T10:54:00;20.50;47.90
65038;DHT22;51605;47.040;15.294;2023-12-22T10:56:26;20.50;47.90
65038;DHT22;51605;47.040;15.294;2023-12-22T10:58:53;20.50;47.90
65038;DHT22;51605;47.040;15.294;2023-12-22T11:01:21;20.50;47.90
65038;DHT22;51605;47.040;15.294;2023-12-22T11:03:50;20.50;47.90
65038;DHT22;51605;47.040;15.294;2023-12-22T11:06:16;20.50;47.90
65038;DHT22;51605;47.040;15.294;2023-12-22T11:08:43;20.50;48.00
65038;DHT22;51605;47.040;15.294;2023-12-22T11:11:16;20.50;48.80
65038;DHT22;51605;47.040;15.294;2023-12-22T11:13:45;20.50;47.90
65038;DHT22;51605;47.040;15.294;2023-12-22T11:16:11;20.50;48.00
65038;DHT22;51605;47.040;15.294;2023-12-22T11:18:38;20.50;47.90
65038;DHT22;51605;47.040;15.294;2023-12-22T11:21:06;20.50;47.90
65038;DHT22;51605;47.040;15.294;2023-12-22T11:23:32;20.50;48.00
65038;DHT22;51605;47.040;15.294;2023-12-22T11:25:59;20.50;47.90
65038;DHT22;51605;47.040;15.294;2023-12-22T11:28:26;20.50;48.00
65038;DHT22;51605;47.040;15.294;2023-12-22T11:30:54;20.50;47.90
65038;DHT22;51605;47.040;15.294;2023-12-22T11:33:21;20.50;47.80
65038;DHT22;51605;47.040;15.294;2023-12-22T11:35:50;20.50;47.80
65038;DHT22;51605;47.040;15.294;2023-12-22T11:38:18;20.50;47.80
65038;DHT22;51605;47.040;15.294;2023-12-22T11:40:44;20.50;47.80
65038;DHT22;51605;47.040;15.294;2023-12-22T11:43:10;20.50;47.80
65038;DHT22;51605;47.040;15.294;2023-12-22T11:45:36;20.50;47.90
65038;DHT22;51605;47.040;15.294;2023-12-22T11:48:08;20.50;47.80
65038;DHT22;51605;47.040;15.294;2023-12-22T11:50:35;20.50;47.80
65038;DHT22;51605;47.040;15.294;2023-12-22T11:53:20;20.50;47.80
65038;DHT22;51605;47.040;15.294;2023-12-22T11:56:03;20.50;47.80
65038;DHT22;51605;47.040;15.294;2023-12-22T12:01:01;20.50;47.80
65038;DHT22;51605;47.040;15.294;2023-12-22T12:03:30;20.50;47.80
65038;DHT22;51605;47.040;15.294;2023-12-22T12:08:51;20.50;47.80
65038;DHT22;51605;47.040;15.294;2023-12-22T12:11:17;20.50;47.80
65038;DHT22;51605;47.040;15.294;2023-12-22T12:13:44;20.50;48.40
65038;DHT22;51605;47.040;15.294;2023-12-22T12:16:15;20.50;48.90
65038;DHT22;51605;47.040;15.294;2023-12-22T12:18:41;20.50;48.90
65038;DHT22;51605;47.040;15.294;2023-12-22T12:21:09;20.50;48.90
65038;DHT22;51605;47.040;15.294;2023-12-22T12:23:36;20.50;49.00
65038;DHT22;51605;47.040;15.294;2023-12-22T12:26:02;20.50;49.00
65038;DHT22;51605;47.040;15.294;2023-12-22T12:28:31;20.50;48.90
65038;DHT22;51605;47.040;15.294;2023-12-22T12:30:59;20.50;49.30
65038;DHT22;51605;47.040;15.294;2023-12-22T12:33:28;20.50;49.20
65038;DHT22;51605;47.040;15.294;2023-12-22T12:35:58;20.50;49.10
65038;DHT22;51605;47.040;15.294;2023-12-22T12:41:31;20.50;49.20
65038;DHT22;51605;47.040;15.294;2023-12-22T12:43:58;20.60;49.20
65038;DHT22;51605;47.040;15.294;2023-12-22T12:46:45;20.60;49.30
65038;DHT22;51605;47.040;15.294;2023-12-22T12:49:11;20.60;49.30
65038;DHT22;51605;47.040;15.294;2023-12-22T12:51:46;20.60;49.30
65038;DHT22;51605;47.040;15.294;2023-12-22T12:54:12;20.60;49.30
65038;DHT22;51605;47.040;15.294;2023-12-22T12:56:40;20.60;49.60
65038;DHT22;51605;47.040;15.294;2023-12-22T12:59:13;20.60;49.50
65038;DHT22;51605;47.040;15.294;2023-12-22T13:04:05;20.60;49.00
65038;DHT22;51605;47.040;15.294;2023-12-22T13:06:31;20.60;48.90
65038;DHT22;51605;47.040;15.294;2023-12-22T13:08:57;20.60;48.60
65038;DHT22;51605;47.040;15.294;2023-12-22T13:11:26;20.60;48.50
65038;DHT22;51605;47.040;15.294;2023-12-22T13:13:53;20.60;48.40
65038;DHT22;51605;47.040;15.294;2023-12-22T13:16:20;20.60;48.40
65038;DHT22;51605;47.040;15.294;2023-12-22T13:18:47;20.60;48.30
65038;DHT22;51605;47.040;15.294;2023-12-22T13:21:13;20.60;48.20
65038;DHT22;51605;47.040;15.294;2023-12-22T13:23:39;20.60;48.20
65038;DHT22;51605;47.040;15.294;2023-12-22T13:26:05;20.60;49.10
65038;DHT22;51605;47.040;15.294;2023-12-22T13:28:31;20.60;48.10
65038;DHT22;51605;47.040;15.294;2023-12-22T13:30:56;20.60;48.20
65038;DHT22;51605;47.040;15.294;2023-12-22T13:33:22;20.60;48.20
65038;DHT22;51605;47.040;15.294;2023-12-22T13:35:57;20.60;48.10
65038;DHT22;51605;47.040;15.294;2023-12-22T13:38:23;20.60;48.10
65038;DHT22;51605;47.040;15.294;2023-12-22T13:40:49;20.60;48.20
65038;DHT22;51605;47.040;15.294;2023-12-22T13:43:15;20.60;48.20
65038;DHT22;51605;47.040;15.294;2023-12-22T13:45:41;20.60;48.20
65038;DHT22;51605;47.040;15.294;2023-12-22T13:48:07;20.50;48.20
65038;DHT22;51605;47.040;15.294;2023-12-22T13:50:33;20.60;48.30
65038;DHT22;51605;47.040;15.294;2023-12-22T13:53:11;20.60;48.20
65038;DHT22;51605;47.040;15.294;2023-12-22T13:55:37;20.50;48.20
65038;DHT22;51605;47.040;15.294;2023-12-22T13:58:04;20.50;48.20
65038;DHT22;51605;47.040;15.294;2023-12-22T14:00:30;20.50;48.20
65038;DHT22;51605;47.040;15.294;2023-12-22T14:02:57;20.50;48.20
65038;DHT22;51605;47.040;15.294;2023-12-22T14:05:22;20.50;48.20
65038;DHT22;51605;47.040;15.294;2023-12-22T14:07:48;20.50;48.20
65038;DHT22;51605;47.040;15.294;2023-12-22T14:10:15;20.50;48.20
65038;DHT22;51605;47.040;15.294;2023-12-22T14:12:41;20.50;48.20
65038;DHT22;51605;47.040;15.294;2023-12-22T14:15:08;20.50;48.20
65038;DHT22;51605;47.040;15.294;2023-12-22T14:17:34;20.50;48.20
65038;DHT22;51605;47.040;15.294;2023-12-22T14:20:00;20.50;48.30
65038;DHT22;51605;47.040;15.294;2023-12-22T14:22:26;20.50;48.20
65038;DHT22;51605;47.040;15.294;2023-12-22T14:24:52;20.50;48.20
65038;DHT22;51605;47.040;15.294;2023-12-22T14:27:18;20.50;48.20
65038;DHT22;51605;47.040;15.294;2023-12-22T14:29:44;20.50;48.20
65038;DHT22;51605;47.040;15.294;2023-12-22T14:32:10;20.50;48.20
65038;DHT22;51605;47.040;15.294;2023-12-22T14:34:40;20.50;48.30
65038;DHT22;51605;47.040;15.294;2023-12-22T14:37:06;20.50;48.20
65038;DHT22;51605;47.040;15.294;2023-12-22T14:39:32;20.50;48.20
65038;DHT22;51605;47.040;15.294;2023-12-22T14:41:59;20.50;48.20
65038;DHT22;51605;47.040;15.294;2023-12-22T14:44:25;20.50;48.20
65038;DHT22;51605;47.040;15.294;2023-12-22T14:46:50;20.50;48.20
65038;DHT22;51605;47.040;15.294;2023-12-22T14:49:16;20.50;48.20
65038;DHT22;51605;47.040;15.294;2023-12-22T14:51:43;20.50;48.20
65038;DHT22;51605;47.040;15.294;2023-12-22T14:54:09;20.50;48.20
65038;DHT22;51605;47.040;15.294;2023-12-22T14:56:38;20.50;48.20
65038;DHT22;51605;47.040;15.294;2023-12-22T14:59:09;20.60;48.30
65038;DHT22;51605;47.040;15.294;2023-12-22T15:01:35;20.60;48.30
65038;DHT22;51605;47.040;15.294;2023-12-22T15:04:01;20.50;48.20
65038;DHT22;51605;47.040;15.294;2023-12-22T15:06:28;20.50;48.20
65038;DHT22;51605;47.040;15.294;2023-12-22T15:08:54;20.50;48.20
65038;DHT22;51605;47.040;15.294;2023-12-22T15:11:20;20.50;48.30
65038;DHT22;51605;47.040;15.294;2023-12-22T15:13:46;20.50;48.30
65038;DHT22;51605;47.040;15.294;2023-12-22T15:16:11;20.50;48.30
65038;DHT22;51605;47.040;15.294;2023-12-22T15:18:37;20.50;49.00
65038;DHT22;51605;47.040;15.294;2023-12-22T15:21:04;20.60;50.10
65038;DHT22;51605;47.040;15.294;2023-12-22T15:23:29;20.60;50.00
65038;DHT22;51605;47.040;15.294;2023-12-22T15:25:56;20.50;51.00
65038;DHT22;51605;47.040;15.294;2023-12-22T15:28:21;20.60;50.30
65038;DHT22;51605;47.040;15.294;2023-12-22T15:30:47;20.50;50.20
65038;DHT22;51605;47.040;15.294;2023-12-22T15:33:13;20.50;49.60
65038;DHT22;51605;47.040;15.294;2023-12-22T15:35:39;20.50;49.40
65038;DHT22;51605;47.040;15.294;2023-12-22T15:38:04;20.50;49.00
65038;DHT22;51605;47.040;15.294;2023-12-22T15:40:30;20.50;48.90
65038;DHT22;51605;47.040;15.294;2023-12-22T15:42:56;20.60;48.90